sensor_id;sensor_type;location;lat;lon;timestamp;P1;durP1;ratioP1;P2;durP2;ratioP2
47764;SDS011;33529;49.242;8.670;2023-05-10T00:01:32;1.95;;;1.00;;
47764;SDS011;33529;49.242;8.670;2023-05-10T00:03:59;3.47;;;1.95;;
47764;SDS011;33529;49.242;8.670;2023-05-10T00:06:26;1.67;;;0.82;;
47764;SDS011;33529;49.242;8.670;2023-05-10T00:08:54;2.72;;;0.95;;
47764;SDS011;33529;49.242;8.670;2023-05-10T00:11:21;2.70;;;1.52;;
47764;SDS011;33529;49.242;8.670;2023-05-10T00:13:48;1.15;;;0.60;;
47764;SDS011;33529;49.242;8.670;2023-05-10T00:16:15;1.98;;;0.73;;
47764;SDS011;33529;49.242;8.670;2023-05-10T00:18:42;1.02;;;0.70;;
47764;SDS011;33529;49.242;8.670;2023-05-10T00:21:08;1.73;;;1.00;;
47764;SDS011;33529;49.242;8.670;2023-05-10T00:23:35;1.70;;;0.90;;
47764;SDS011;33529;49.242;8.670;2023-05-10T00:26:02;1.42;;;0.68;;
47764;SDS011;33529;49.242;8.670;2023-05-10T00:28:29;1.60;;;0.80;;
47764;SDS011;33529;49.242;8.670;2023-05-10T00:30:57;2.22;;;0.80;;
47764;SDS011;33529;49.242;8.670;2023-05-10T00:33:24;0.63;;;0.35;;
47764;SDS011;33529;49.242;8.670;2023-05-10T00:35:51;1.00;;;0.50;;
47764;SDS011;33529;49.242;8.670;2023-05-10T00:38:18;1.85;;;0.95;;
47764;SDS011;33529;49.242;8.670;2023-05-10T00:40:45;1.35;;;0.70;;
47764;SDS011;33529;49.242;8.670;2023-05-10T00:43:20;2.25;;;0.80;;
47764;SDS011;33529;49.242;8.670;2023-05-10T00:45:47;2.65;;;0.80;;
47764;SDS011;33529;49.242;8.670;2023-05-10T00:48:14;1.85;;;1.00;;
47764;SDS011;33529;49.242;8.670;2023-05-10T00:50:42;1.05;;;0.65;;
47764;SDS011;33529;49.242;8.670;2023-05-10T00:53:08;1.63;;;0.80;;
47764;SDS011;33529;49.242;8.670;2023-05-10T00:55:37;1.73;;;0.88;;
47764;SDS011;33529;49.242;8.670;2023-05-10T00:58:04;1.20;;;0.70;;
47764;SDS011;33529;49.242;8.670;2023-05-10T01:00:32;1.02;;;0.65;;
47764;SDS011;33529;49.242;8.670;2023-05-10T01:02:59;1.88;;;0.70;;
47764;SDS011;33529;49.242;8.670;2023-05-10T01:05:26;2.25;;;1.10;;
47764;SDS011;33529;49.242;8.670;2023-05-10T01:07:53;3.30;;;1.52;;
47764;SDS011;33529;49.242;8.670;2023-05-10T01:10:20;4.30;;;1.35;;
47764;SDS011;33529;49.242;8.670;2023-05-10T01:12:48;1.77;;;0.82;;
47764;SDS011;33529;49.242;8.670;2023-05-10T01:15:15;1.48;;;0.68;;
47764;SDS011;33529;49.242;8.670;2023-05-10T01:17:46;1.17;;;0.70;;
47764;SDS011;33529;49.242;8.670;2023-05-10T01:20:14;1.38;;;0.82;;
47764;SDS011;33529;49.242;8.670;2023-05-10T01:34:34;1.50;;;0.65;;
47764;SDS011;33529;49.242;8.670;2023-05-10T01:37:06;2.25;;;0.90;;
47764;SDS011;33529;49.242;8.670;2023-05-10T01:39:44;1.63;;;0.82;;
47764;SDS011;33529;49.242;8.670;2023-05-10T01:42:16;1.77;;;0.80;;
47764;SDS011;33529;49.242;8.670;2023-05-10T01:47:35;1.42;;;0.70;;
47764;SDS011;33529;49.242;8.670;2023-05-10T01:50:08;1.40;;;0.93;;
47764;SDS011;33529;49.242;8.670;2023-05-10T01:52:42;1.80;;;0.90;;
47764;SDS011;33529;49.242;8.670;2023-05-10T01:55:13;1.85;;;1.10;;
47764;SDS011;33529;49.242;8.670;2023-05-10T01:57:43;1.33;;;0.60;;
47764;SDS011;33529;49.242;8.670;2023-05-10T02:00:13;1.70;;;0.95;;
47764;SDS011;33529;49.242;8.670;2023-05-10T02:02:44;1.92;;;1.00;;
47764;SDS011;33529;49.242;8.670;2023-05-10T02:05:13;2.58;;;0.98;;
47764;SDS011;33529;49.242;8.670;2023-05-10T02:07:42;1.13;;;0.73;;
47764;SDS011;33529;49.242;8.670;2023-05-10T02:10:10;1.88;;;0.90;;
47764;SDS011;33529;49.242;8.670;2023-05-10T02:12:43;2.25;;;0.80;;
47764;SDS011;33529;49.242;8.670;2023-05-10T02:15:12;1.60;;;1.02;;
47764;SDS011;33529;49.242;8.670;2023-05-10T02:17:43;1.77;;;1.08;;
47764;SDS011;33529;49.242;8.670;2023-05-10T02:20:12;3.45;;;1.60;;
47764;SDS011;33529;49.242;8.670;2023-05-10T02:22:41;2.25;;;1.20;;
47764;SDS011;33529;49.242;8.670;2023-05-10T02:25:12;2.45;;;1.10;;
47764;SDS011;33529;49.242;8.670;2023-05-10T02:27:42;2.60;;;1.50;;
47764;SDS011;33529;49.242;8.670;2023-05-10T02:30:10;2.30;;;1.30;;
47764;SDS011;33529;49.242;8.670;2023-05-10T02:32:38;2.08;;;1.10;;
47764;SDS011;33529;49.242;8.670;2023-05-10T02:35:06;2.85;;;1.50;;
47764;SDS011;33529;49.242;8.670;2023-05-10T02:37:35;2.42;;;1.33;;
47764;SDS011;33529;49.242;8.670;2023-05-10T02:40:04;1.63;;;0.93;;
47764;SDS011;33529;49.242;8.670;2023-05-10T02:42:33;2.88;;;1.27;;
47764;SDS011;33529;49.242;8.670;2023-05-10T02:45:05;3.13;;;1.38;;
47764;SDS011;33529;49.242;8.670;2023-05-10T02:47:36;2.95;;;1.80;;
47764;SDS011;33529;49.242;8.670;2023-05-10T02:50:04;3.10;;;1.67;;
47764;SDS011;33529;49.242;8.670;2023-05-10T02:52:36;2.60;;;1.40;;
47764;SDS011;33529;49.242;8.670;2023-05-10T02:55:06;2.97;;;1.52;;
47764;SDS011;33529;49.242;8.670;2023-05-10T02:57:36;2.05;;;1.25;;
47764;SDS011;33529;49.242;8.670;2023-05-10T03:00:07;2.45;;;1.40;;
47764;SDS011;33529;49.242;8.670;2023-05-10T03:02:35;2.35;;;1.27;;
47764;SDS011;33529;49.242;8.670;2023-05-10T03:05:02;3.03;;;1.45;;
47764;SDS011;33529;49.242;8.670;2023-05-10T03:07:29;2.25;;;1.55;;
47764;SDS011;33529;49.242;8.670;2023-05-10T03:09:57;1.77;;;1.05;;
47764;SDS011;33529;49.242;8.670;2023-05-10T03:18:23;3.40;;;1.65;;
47764;SDS011;33529;49.242;8.670;2023-05-10T03:21:02;2.80;;;1.48;;
47764;SDS011;33529;49.242;8.670;2023-05-10T03:23:40;2.15;;;1.10;;
47764;SDS011;33529;49.242;8.670;2023-05-10T03:26:11;2.10;;;1.10;;
47764;SDS011;33529;49.242;8.670;2023-05-10T03:28:47;3.35;;;1.70;;
47764;SDS011;33529;49.242;8.670;2023-05-10T03:31:15;2.88;;;1.55;;
47764;SDS011;33529;49.242;8.670;2023-05-10T03:33:49;3.40;;;1.65;;
47764;SDS011;33529;49.242;8.670;2023-05-10T03:36:22;1.98;;;1.23;;
47764;SDS011;33529;49.242;8.670;2023-05-10T03:38:50;3.47;;;1.55;;
47764;SDS011;33529;49.242;8.670;2023-05-10T03:41:17;3.67;;;1.40;;
47764;SDS011;33529;49.242;8.670;2023-05-10T03:43:44;3.10;;;1.70;;
47764;SDS011;33529;49.242;8.670;2023-05-10T03:46:10;3.70;;;1.60;;
47764;SDS011;33529;49.242;8.670;2023-05-10T03:48:38;3.53;;;1.90;;
47764;SDS011;33529;49.242;8.670;2023-05-10T03:51:06;3.47;;;1.65;;
47764;SDS011;33529;49.242;8.670;2023-05-10T03:53:33;3.47;;;1.92;;
47764;SDS011;33529;49.242;8.670;2023-05-10T03:55:59;3.17;;;1.50;;
47764;SDS011;33529;49.242;8.670;2023-05-10T03:58:26;2.72;;;1.52;;
47764;SDS011;33529;49.242;8.670;2023-05-10T04:00:53;2.75;;;1.77;;
47764;SDS011;33529;49.242;8.670;2023-05-10T04:03:20;3.13;;;1.40;;
47764;SDS011;33529;49.242;8.670;2023-05-10T04:05:47;4.13;;;2.15;;
47764;SDS011;33529;49.242;8.670;2023-05-10T04:08:14;3.25;;;1.88;;
47764;SDS011;33529;49.242;8.670;2023-05-10T04:10:42;3.53;;;2.10;;
47764;SDS011;33529;49.242;8.670;2023-05-10T04:13:09;4.35;;;1.90;;
47764;SDS011;33529;49.242;8.670;2023-05-10T04:15:37;4.53;;;2.15;;
47764;SDS011;33529;49.242;8.670;2023-05-10T04:18:04;3.90;;;2.00;;
47764;SDS011;33529;49.242;8.670;2023-05-10T04:20:33;3.65;;;2.00;;
47764;SDS011;33529;49.242;8.670;2023-05-10T04:23:00;4.20;;;2.40;;
47764;SDS011;33529;49.242;8.670;2023-05-10T04:25:27;3.95;;;2.17;;
47764;SDS011;33529;49.242;8.670;2023-05-10T04:27:54;3.75;;;2.38;;
47764;SDS011;33529;49.242;8.670;2023-05-10T04:30:20;4.63;;;2.90;;
47764;SDS011;33529;49.242;8.670;2023-05-10T04:32:47;5.97;;;2.90;;
47764;SDS011;33529;49.242;8.670;2023-05-10T04:35:14;4.80;;;2.72;;
47764;SDS011;33529;49.242;8.670;2023-05-10T04:37:41;6.15;;;2.83;;
47764;SDS011;33529;49.242;8.670;2023-05-10T04:40:08;5.85;;;2.78;;
47764;SDS011;33529;49.242;8.670;2023-05-10T04:42:35;3.90;;;1.95;;
47764;SDS011;33529;49.242;8.670;2023-05-10T04:45:02;3.80;;;2.35;;
47764;SDS011;33529;49.242;8.670;2023-05-10T04:47:29;4.68;;;2.53;;
47764;SDS011;33529;49.242;8.670;2023-05-10T04:49:57;5.35;;;2.90;;
47764;SDS011;33529;49.242;8.670;2023-05-10T04:52:24;4.93;;;3.08;;
47764;SDS011;33529;49.242;8.670;2023-05-10T04:54:51;4.70;;;2.63;;
47764;SDS011;33529;49.242;8.670;2023-05-10T04:57:18;4.65;;;3.10;;
47764;SDS011;33529;49.242;8.670;2023-05-10T04:59:44;4.45;;;2.35;;
47764;SDS011;33529;49.242;8.670;2023-05-10T05:02:13;5.18;;;2.47;;
47764;SDS011;33529;49.242;8.670;2023-05-10T05:04:40;4.70;;;2.65;;
47764;SDS011;33529;49.242;8.670;2023-05-10T05:07:07;4.20;;;2.72;;
47764;SDS011;33529;49.242;8.670;2023-05-10T05:09:34;4.75;;;2.92;;
47764;SDS011;33529;49.242;8.670;2023-05-10T05:12:01;5.70;;;2.67;;
47764;SDS011;33529;49.242;8.670;2023-05-10T05:14:28;6.13;;;2.70;;
47764;SDS011;33529;49.242;8.670;2023-05-10T05:16:55;4.90;;;2.65;;
47764;SDS011;33529;49.242;8.670;2023-05-10T05:19:22;5.20;;;2.95;;
47764;SDS011;33529;49.242;8.670;2023-05-10T05:21:49;4.70;;;2.85;;
47764;SDS011;33529;49.242;8.670;2023-05-10T05:24:16;4.50;;;2.42;;
47764;SDS011;33529;49.242;8.670;2023-05-10T05:26:43;4.68;;;2.53;;
47764;SDS011;33529;49.242;8.670;2023-05-10T05:29:10;3.92;;;2.28;;
47764;SDS011;33529;49.242;8.670;2023-05-10T05:31:37;4.43;;;2.67;;
47764;SDS011;33529;49.242;8.670;2023-05-10T05:34:03;5.22;;;2.13;;
47764;SDS011;33529;49.242;8.670;2023-05-10T05:36:31;3.90;;;2.38;;
47764;SDS011;33529;49.242;8.670;2023-05-10T05:38:58;4.70;;;2.55;;
47764;SDS011;33529;49.242;8.670;2023-05-10T05:41:24;4.70;;;2.47;;
47764;SDS011;33529;49.242;8.670;2023-05-10T05:43:52;3.60;;;2.38;;
47764;SDS011;33529;49.242;8.670;2023-05-10T05:46:19;3.90;;;2.08;;
47764;SDS011;33529;49.242;8.670;2023-05-10T05:48:46;4.47;;;2.67;;
47764;SDS011;33529;49.242;8.670;2023-05-10T05:51:14;4.55;;;3.00;;
47764;SDS011;33529;49.242;8.670;2023-05-10T05:53:40;4.65;;;2.78;;
47764;SDS011;33529;49.242;8.670;2023-05-10T05:56:07;4.90;;;3.00;;
47764;SDS011;33529;49.242;8.670;2023-05-10T05:58:35;4.53;;;2.58;;
47764;SDS011;33529;49.242;8.670;2023-05-10T06:01:04;5.60;;;2.45;;
47764;SDS011;33529;49.242;8.670;2023-05-10T06:03:31;4.68;;;2.55;;
47764;SDS011;33529;49.242;8.670;2023-05-10T06:06:01;4.78;;;2.80;;
47764;SDS011;33529;49.242;8.670;2023-05-10T06:08:27;4.88;;;2.78;;
47764;SDS011;33529;49.242;8.670;2023-05-10T06:10:54;4.32;;;2.42;;
47764;SDS011;33529;49.242;8.670;2023-05-10T06:13:21;3.92;;;2.05;;
47764;SDS011;33529;49.242;8.670;2023-05-10T06:15:50;4.07;;;1.98;;
47764;SDS011;33529;49.242;8.670;2023-05-10T06:18:17;4.55;;;2.20;;
47764;SDS011;33529;49.242;8.670;2023-05-10T06:20:44;3.85;;;2.10;;
47764;SDS011;33529;49.242;8.670;2023-05-10T06:23:11;3.78;;;2.20;;
47764;SDS011;33529;49.242;8.670;2023-05-10T06:25:38;4.07;;;2.53;;
47764;SDS011;33529;49.242;8.670;2023-05-10T06:28:05;3.45;;;2.20;;
47764;SDS011;33529;49.242;8.670;2023-05-10T06:30:37;5.20;;;2.58;;
47764;SDS011;33529;49.242;8.670;2023-05-10T06:33:04;3.80;;;2.42;;
47764;SDS011;33529;49.242;8.670;2023-05-10T06:35:31;4.35;;;2.50;;
47764;SDS011;33529;49.242;8.670;2023-05-10T06:37:59;4.38;;;2.65;;
47764;SDS011;33529;49.242;8.670;2023-05-10T06:40:26;3.95;;;2.00;;
47764;SDS011;33529;49.242;8.670;2023-05-10T06:42:53;3.78;;;2.30;;
47764;SDS011;33529;49.242;8.670;2023-05-10T06:45:20;4.03;;;2.17;;
47764;SDS011;33529;49.242;8.670;2023-05-10T06:47:47;4.13;;;2.55;;
47764;SDS011;33529;49.242;8.670;2023-05-10T06:50:14;3.80;;;2.30;;
47764;SDS011;33529;49.242;8.670;2023-05-10T06:52:41;3.92;;;2.00;;
47764;SDS011;33529;49.242;8.670;2023-05-10T06:55:09;4.72;;;2.88;;
47764;SDS011;33529;49.242;8.670;2023-05-10T06:57:36;5.55;;;3.08;;
47764;SDS011;33529;49.242;8.670;2023-05-10T07:00:03;3.20;;;2.10;;
47764;SDS011;33529;49.242;8.670;2023-05-10T07:02:31;6.15;;;3.22;;
47764;SDS011;33529;49.242;8.670;2023-05-10T07:04:57;5.10;;;2.50;;
47764;SDS011;33529;49.242;8.670;2023-05-10T07:07:28;6.35;;;2.50;;
47764;SDS011;33529;49.242;8.670;2023-05-10T07:09:55;4.60;;;3.10;;
47764;SDS011;33529;49.242;8.670;2023-05-10T07:12:24;3.95;;;2.53;;
47764;SDS011;33529;49.242;8.670;2023-05-10T07:14:51;4.40;;;2.38;;
47764;SDS011;33529;49.242;8.670;2023-05-10T07:17:20;3.58;;;2.28;;
47764;SDS011;33529;49.242;8.670;2023-05-10T07:19:47;3.47;;;2.10;;
47764;SDS011;33529;49.242;8.670;2023-05-10T07:22:14;3.03;;;1.95;;
47764;SDS011;33529;49.242;8.670;2023-05-10T07:24:41;3.03;;;1.60;;
47764;SDS011;33529;49.242;8.670;2023-05-10T07:27:08;3.60;;;2.10;;
47764;SDS011;33529;49.242;8.670;2023-05-10T07:29:35;2.72;;;1.45;;
47764;SDS011;33529;49.242;8.670;2023-05-10T07:32:02;2.72;;;1.50;;
47764;SDS011;33529;49.242;8.670;2023-05-10T07:34:29;3.78;;;1.65;;
47764;SDS011;33529;49.242;8.670;2023-05-10T07:36:59;3.05;;;1.63;;
47764;SDS011;33529;49.242;8.670;2023-05-10T07:39:29;2.17;;;1.33;;
47764;SDS011;33529;49.242;8.670;2023-05-10T07:41:56;2.78;;;1.33;;
47764;SDS011;33529;49.242;8.670;2023-05-10T07:44:23;3.00;;;1.33;;
47764;SDS011;33529;49.242;8.670;2023-05-10T07:46:50;3.70;;;1.50;;
47764;SDS011;33529;49.242;8.670;2023-05-10T07:49:16;2.25;;;1.40;;
47764;SDS011;33529;49.242;8.670;2023-05-10T07:51:43;2.95;;;1.50;;
47764;SDS011;33529;49.242;8.670;2023-05-10T07:54:10;3.67;;;1.60;;
47764;SDS011;33529;49.242;8.670;2023-05-10T07:56:37;2.70;;;1.08;;
47764;SDS011;33529;49.242;8.670;2023-05-10T07:59:06;2.33;;;1.40;;
47764;SDS011;33529;49.242;8.670;2023-05-10T08:01:35;1.98;;;1.20;;
47764;SDS011;33529;49.242;8.670;2023-05-10T08:04:02;3.22;;;1.35;;
47764;SDS011;33529;49.242;8.670;2023-05-10T08:06:29;2.08;;;1.20;;
47764;SDS011;33529;49.242;8.670;2023-05-10T08:08:56;2.47;;;1.33;;
47764;SDS011;33529;49.242;8.670;2023-05-10T08:11:24;1.52;;;0.98;;
47764;SDS011;33529;49.242;8.670;2023-05-10T08:13:51;1.23;;;0.80;;
47764;SDS011;33529;49.242;8.670;2023-05-10T08:16:19;1.10;;;0.77;;
47764;SDS011;33529;49.242;8.670;2023-05-10T08:18:46;2.08;;;1.13;;
47764;SDS011;33529;49.242;8.670;2023-05-10T08:21:14;3.83;;;1.02;;
47764;SDS011;33529;49.242;8.670;2023-05-10T08:23:41;1.58;;;0.90;;
47764;SDS011;33529;49.242;8.670;2023-05-10T08:26:10;1.90;;;1.20;;
47764;SDS011;33529;49.242;8.670;2023-05-10T08:28:37;1.88;;;0.60;;
47764;SDS011;33529;49.242;8.670;2023-05-10T08:31:04;2.03;;;0.90;;
47764;SDS011;33529;49.242;8.670;2023-05-10T08:33:31;1.35;;;0.90;;
47764;SDS011;33529;49.242;8.670;2023-05-10T08:35:58;2.08;;;0.80;;
47764;SDS011;33529;49.242;8.670;2023-05-10T08:38:25;1.02;;;0.68;;
47764;SDS011;33529;49.242;8.670;2023-05-10T08:40:52;1.98;;;0.93;;
47764;SDS011;33529;49.242;8.670;2023-05-10T08:43:28;1.55;;;0.82;;
47764;SDS011;33529;49.242;8.670;2023-05-10T08:45:56;1.17;;;0.95;;
47764;SDS011;33529;49.242;8.670;2023-05-10T08:48:27;1.90;;;0.80;;
47764;SDS011;33529;49.242;8.670;2023-05-10T08:50:56;1.15;;;0.65;;
47764;SDS011;33529;49.242;8.670;2023-05-10T08:53:26;0.77;;;0.43;;
47764;SDS011;33529;49.242;8.670;2023-05-10T08:55:54;1.15;;;0.70;;
47764;SDS011;33529;49.242;8.670;2023-05-10T08:58:21;1.88;;;0.70;;
47764;SDS011;33529;49.242;8.670;2023-05-10T09:00:49;0.95;;;0.60;;
47764;SDS011;33529;49.242;8.670;2023-05-10T09:03:17;1.63;;;0.80;;
47764;SDS011;33529;49.242;8.670;2023-05-10T09:05:44;1.48;;;0.73;;
47764;SDS011;33529;49.242;8.670;2023-05-10T09:08:11;3.08;;;0.90;;
47764;SDS011;33529;49.242;8.670;2023-05-10T09:10:39;1.23;;;0.52;;
47764;SDS011;33529;49.242;8.670;2023-05-10T09:13:09;1.00;;;0.57;;
47764;SDS011;33529;49.242;8.670;2023-05-10T09:15:37;1.13;;;0.77;;
47764;SDS011;33529;49.242;8.670;2023-05-10T09:18:06;1.27;;;0.80;;
47764;SDS011;33529;49.242;8.670;2023-05-10T09:20:36;0.98;;;0.70;;
47764;SDS011;33529;49.242;8.670;2023-05-10T09:23:06;1.13;;;0.60;;
47764;SDS011;33529;49.242;8.670;2023-05-10T09:25:33;0.80;;;0.75;;
47764;SDS011;33529;49.242;8.670;2023-05-10T09:28:01;1.05;;;0.52;;
47764;SDS011;33529;49.242;8.670;2023-05-10T09:30:29;1.27;;;0.63;;
47764;SDS011;33529;49.242;8.670;2023-05-10T09:32:57;1.10;;;0.50;;
47764;SDS011;33529;49.242;8.670;2023-05-10T09:35:29;0.75;;;0.52;;
47764;SDS011;33529;49.242;8.670;2023-05-10T09:38:03;1.40;;;0.57;;
47764;SDS011;33529;49.242;8.670;2023-05-10T09:40:31;1.83;;;0.60;;
47764;SDS011;33529;49.242;8.670;2023-05-10T09:42:58;0.73;;;0.50;;
47764;SDS011;33529;49.242;8.670;2023-05-10T09:45:27;1.42;;;0.63;;
47764;SDS011;33529;49.242;8.670;2023-05-10T09:48:00;0.73;;;0.50;;
47764;SDS011;33529;49.242;8.670;2023-05-10T09:50:29;2.00;;;1.13;;
47764;SDS011;33529;49.242;8.670;2023-05-10T09:58:07;0.90;;;0.52;;
47764;SDS011;33529;49.242;8.670;2023-05-10T10:00:40;1.92;;;0.80;;
47764;SDS011;33529;49.242;8.670;2023-05-10T10:03:40;0.90;;;0.50;;
47764;SDS011;33529;49.242;8.670;2023-05-10T10:06:18;0.88;;;0.52;;
47764;SDS011;33529;49.242;8.670;2023-05-10T10:08:55;0.73;;;0.50;;
47764;SDS011;33529;49.242;8.670;2023-05-10T10:11:22;0.65;;;0.50;;
47764;SDS011;33529;49.242;8.670;2023-05-10T10:13:50;1.33;;;0.77;;
47764;SDS011;33529;49.242;8.670;2023-05-10T10:16:17;0.88;;;0.55;;
47764;SDS011;33529;49.242;8.670;2023-05-10T10:18:44;1.30;;;0.50;;
47764;SDS011;33529;49.242;8.670;2023-05-10T10:21:13;0.52;;;0.32;;
47764;SDS011;33529;49.242;8.670;2023-05-10T10:23:41;1.00;;;0.50;;
47764;SDS011;33529;49.242;8.670;2023-05-10T10:26:09;0.95;;;0.45;;
47764;SDS011;33529;49.242;8.670;2023-05-10T10:28:43;1.02;;;0.50;;
47764;SDS011;33529;49.242;8.670;2023-05-10T10:31:18;1.10;;;0.60;;
47764;SDS011;33529;49.242;8.670;2023-05-10T10:34:05;1.55;;;0.60;;
47764;SDS011;33529;49.242;8.670;2023-05-10T10:36:47;2.00;;;0.60;;
47764;SDS011;33529;49.242;8.670;2023-05-10T10:39:14;1.17;;;0.70;;
47764;SDS011;33529;49.242;8.670;2023-05-10T10:41:52;1.20;;;0.55;;
47764;SDS011;33529;49.242;8.670;2023-05-10T10:49:26;1.60;;;0.60;;
47764;SDS011;33529;49.242;8.670;2023-05-10T10:54:40;1.10;;;0.70;;
47764;SDS011;33529;49.242;8.670;2023-05-10T10:57:11;1.50;;;0.80;;
47764;SDS011;33529;49.242;8.670;2023-05-10T10:59:43;1.27;;;0.70;;
47764;SDS011;33529;49.242;8.670;2023-05-10T11:02:10;2.88;;;0.90;;
47764;SDS011;33529;49.242;8.670;2023-05-10T11:05:22;1.90;;;0.80;;
47764;SDS011;33529;49.242;8.670;2023-05-10T11:13:27;1.90;;;0.90;;
47764;SDS011;33529;49.242;8.670;2023-05-10T11:15:56;0.57;;;0.50;;
47764;SDS011;33529;49.242;8.670;2023-05-10T11:18:24;1.20;;;0.88;;
47764;SDS011;33529;49.242;8.670;2023-05-10T11:20:52;1.13;;;0.65;;
47764;SDS011;33529;49.242;8.670;2023-05-10T11:23:48;1.35;;;0.70;;
47764;SDS011;33529;49.242;8.670;2023-05-10T11:26:25;1.23;;;0.60;;
47764;SDS011;33529;49.242;8.670;2023-05-10T11:28:58;0.68;;;0.52;;
47764;SDS011;33529;49.242;8.670;2023-05-10T11:31:28;0.85;;;0.50;;
47764;SDS011;33529;49.242;8.670;2023-05-10T11:33:56;1.10;;;0.50;;
47764;SDS011;33529;49.242;8.670;2023-05-10T11:36:28;0.85;;;0.63;;
47764;SDS011;33529;49.242;8.670;2023-05-10T11:38:58;1.17;;;0.70;;
47764;SDS011;33529;49.242;8.670;2023-05-10T11:41:27;1.67;;;0.52;;
47764;SDS011;33529;49.242;8.670;2023-05-10T11:43:55;1.17;;;0.70;;
47764;SDS011;33529;49.242;8.670;2023-05-10T11:46:24;1.33;;;0.65;;
47764;SDS011;33529;49.242;8.670;2023-05-10T11:48:55;0.77;;;0.40;;
47764;SDS011;33529;49.242;8.670;2023-05-10T11:51:28;0.68;;;0.47;;
47764;SDS011;33529;49.242;8.670;2023-05-10T11:53:56;1.35;;;0.80;;
47764;SDS011;33529;49.242;8.670;2023-05-10T11:56:23;0.60;;;0.38;;
47764;SDS011;33529;49.242;8.670;2023-05-10T11:58:53;3.33;;;1.08;;
47764;SDS011;33529;49.242;8.670;2023-05-10T12:01:22;1.33;;;0.63;;
47764;SDS011;33529;49.242;8.670;2023-05-10T12:03:50;0.50;;;0.50;;
47764;SDS011;33529;49.242;8.670;2023-05-10T12:06:21;1.80;;;0.93;;
47764;SDS011;33529;49.242;8.670;2023-05-10T12:08:48;1.25;;;0.73;;
47764;SDS011;33529;49.242;8.670;2023-05-10T12:11:19;0.45;;;0.40;;
47764;SDS011;33529;49.242;8.670;2023-05-10T12:13:51;0.55;;;0.40;;
47764;SDS011;33529;49.242;8.670;2023-05-10T12:16:19;1.00;;;0.52;;
47764;SDS011;33529;49.242;8.670;2023-05-10T12:18:53;1.92;;;0.85;;
47764;SDS011;33529;49.242;8.670;2023-05-10T12:21:22;0.77;;;0.45;;
47764;SDS011;33529;49.242;8.670;2023-05-10T12:23:50;0.82;;;0.52;;
47764;SDS011;33529;49.242;8.670;2023-05-10T12:26:22;0.50;;;0.50;;
47764;SDS011;33529;49.242;8.670;2023-05-10T12:28:50;1.65;;;0.40;;
47764;SDS011;33529;49.242;8.670;2023-05-10T12:31:17;2.33;;;0.65;;
47764;SDS011;33529;49.242;8.670;2023-05-10T12:33:44;0.63;;;0.60;;
47764;SDS011;33529;49.242;8.670;2023-05-10T12:36:14;1.30;;;0.70;;
47764;SDS011;33529;49.242;8.670;2023-05-10T12:38:42;0.88;;;0.68;;
47764;SDS011;33529;49.242;8.670;2023-05-10T12:41:12;1.75;;;0.55;;
47764;SDS011;33529;49.242;8.670;2023-05-10T12:43:41;1.60;;;0.57;;
47764;SDS011;33529;49.242;8.670;2023-05-10T12:46:15;1.67;;;0.60;;
47764;SDS011;33529;49.242;8.670;2023-05-10T12:48:44;0.77;;;0.47;;
47764;SDS011;33529;49.242;8.670;2023-05-10T12:51:34;1.35;;;0.70;;
47764;SDS011;33529;49.242;8.670;2023-05-10T12:54:01;0.90;;;0.47;;
47764;SDS011;33529;49.242;8.670;2023-05-10T12:56:29;1.40;;;0.88;;
47764;SDS011;33529;49.242;8.670;2023-05-10T12:58:55;1.58;;;0.60;;
47764;SDS011;33529;49.242;8.670;2023-05-10T13:01:22;1.75;;;0.70;;
47764;SDS011;33529;49.242;8.670;2023-05-10T13:03:49;0.75;;;0.60;;
47764;SDS011;33529;49.242;8.670;2023-05-10T13:06:17;0.95;;;0.60;;
47764;SDS011;33529;49.242;8.670;2023-05-10T13:08:44;1.27;;;0.65;;
47764;SDS011;33529;49.242;8.670;2023-05-10T13:11:12;1.65;;;0.50;;
47764;SDS011;33529;49.242;8.670;2023-05-10T13:13:42;1.40;;;0.68;;
47764;SDS011;33529;49.242;8.670;2023-05-10T13:16:09;0.60;;;0.40;;
47764;SDS011;33529;49.242;8.670;2023-05-10T13:18:36;0.90;;;0.50;;
47764;SDS011;33529;49.242;8.670;2023-05-10T13:21:03;1.05;;;0.55;;
47764;SDS011;33529;49.242;8.670;2023-05-10T13:23:31;2.28;;;0.63;;
47764;SDS011;33529;49.242;8.670;2023-05-10T13:25:58;2.05;;;0.70;;
47764;SDS011;33529;49.242;8.670;2023-05-10T13:28:25;0.60;;;0.40;;
47764;SDS011;33529;49.242;8.670;2023-05-10T13:30:52;2.08;;;0.80;;
47764;SDS011;33529;49.242;8.670;2023-05-10T13:33:19;2.15;;;0.57;;
47764;SDS011;33529;49.242;8.670;2023-05-10T13:35:48;1.25;;;0.60;;
47764;SDS011;33529;49.242;8.670;2023-05-10T13:38:15;1.05;;;0.50;;
47764;SDS011;33529;49.242;8.670;2023-05-10T13:40:42;0.98;;;0.80;;
47764;SDS011;33529;49.242;8.670;2023-05-10T13:43:08;0.77;;;0.50;;
47764;SDS011;33529;49.242;8.670;2023-05-10T13:45:35;1.23;;;0.73;;
47764;SDS011;33529;49.242;8.670;2023-05-10T13:48:02;0.68;;;0.50;;
47764;SDS011;33529;49.242;8.670;2023-05-10T13:50:29;3.10;;;0.80;;
47764;SDS011;33529;49.242;8.670;2023-05-10T13:52:56;0.47;;;0.43;;
47764;SDS011;33529;49.242;8.670;2023-05-10T13:55:23;0.60;;;0.50;;
47764;SDS011;33529;49.242;8.670;2023-05-10T13:57:50;1.48;;;0.55;;
47764;SDS011;33529;49.242;8.670;2023-05-10T14:00:17;1.38;;;0.75;;
47764;SDS011;33529;49.242;8.670;2023-05-10T14:02:43;0.85;;;0.30;;
47764;SDS011;33529;49.242;8.670;2023-05-10T14:05:10;0.70;;;0.50;;
47764;SDS011;33529;49.242;8.670;2023-05-10T14:07:38;0.57;;;0.50;;
47764;SDS011;33529;49.242;8.670;2023-05-10T14:10:05;0.68;;;0.50;;
47764;SDS011;33529;49.242;8.670;2023-05-10T14:12:32;0.60;;;0.30;;
47764;SDS011;33529;49.242;8.670;2023-05-10T14:14:59;1.45;;;0.70;;
47764;SDS011;33529;49.242;8.670;2023-05-10T14:17:26;0.52;;;0.50;;
47764;SDS011;33529;49.242;8.670;2023-05-10T14:19:53;0.28;;;0.22;;
47764;SDS011;33529;49.242;8.670;2023-05-10T14:22:19;1.05;;;0.60;;
47764;SDS011;33529;49.242;8.670;2023-05-10T14:24:46;0.43;;;0.40;;
47764;SDS011;33529;49.242;8.670;2023-05-10T14:27:13;0.88;;;0.47;;
47764;SDS011;33529;49.242;8.670;2023-05-10T14:29:40;1.63;;;0.50;;
47764;SDS011;33529;49.242;8.670;2023-05-10T14:32:08;0.70;;;0.45;;
47764;SDS011;33529;49.242;8.670;2023-05-10T14:34:35;0.80;;;0.40;;
47764;SDS011;33529;49.242;8.670;2023-05-10T14:37:02;0.60;;;0.50;;
47764;SDS011;33529;49.242;8.670;2023-05-10T14:39:31;0.50;;;0.40;;
47764;SDS011;33529;49.242;8.670;2023-05-10T14:41:59;2.65;;;0.40;;
47764;SDS011;33529;49.242;8.670;2023-05-10T14:44:26;0.60;;;0.30;;
47764;SDS011;33529;49.242;8.670;2023-05-10T14:46:52;0.80;;;0.32;;
47764;SDS011;33529;49.242;8.670;2023-05-10T14:49:19;1.80;;;0.28;;
47764;SDS011;33529;49.242;8.670;2023-05-10T14:51:48;0.65;;;0.40;;
47764;SDS011;33529;49.242;8.670;2023-05-10T14:54:15;0.40;;;0.30;;
47764;SDS011;33529;49.242;8.670;2023-05-10T14:56:42;0.55;;;0.35;;
47764;SDS011;33529;49.242;8.670;2023-05-10T14:59:09;0.75;;;0.47;;
47764;SDS011;33529;49.242;8.670;2023-05-10T15:01:39;0.45;;;0.28;;
47764;SDS011;33529;49.242;8.670;2023-05-10T15:04:08;0.50;;;0.40;;
47764;SDS011;33529;49.242;8.670;2023-05-10T15:06:36;2.65;;;0.40;;
47764;SDS011;33529;49.242;8.670;2023-05-10T15:09:03;0.63;;;0.40;;
47764;SDS011;33529;49.242;8.670;2023-05-10T15:11:42;0.70;;;0.35;;
47764;SDS011;33529;49.242;8.670;2023-05-10T15:21:29;1.35;;;0.30;;
47764;SDS011;33529;49.242;8.670;2023-05-10T15:28:58;1.08;;;0.55;;
47764;SDS011;33529;49.242;8.670;2023-05-10T15:35:50;0.65;;;0.40;;
47764;SDS011;33529;49.242;8.670;2023-05-10T15:38:22;0.73;;;0.30;;
47764;SDS011;33529;49.242;8.670;2023-05-10T15:40:56;0.30;;;0.22;;
47764;SDS011;33529;49.242;8.670;2023-05-10T15:43:53;0.45;;;0.30;;
47764;SDS011;33529;49.242;8.670;2023-05-10T15:47:18;1.27;;;0.35;;
47764;SDS011;33529;49.242;8.670;2023-05-10T15:53:47;0.52;;;0.43;;
47764;SDS011;33529;49.242;8.670;2023-05-10T16:00:28;0.47;;;0.35;;
47764;SDS011;33529;49.242;8.670;2023-05-10T16:03:26;0.60;;;0.35;;